createdAt,value
2023-04-07T00:03:09.019Z,6.83
2023-04-07T00:08:11.899Z,6.76
2023-04-07T00:13:14.708Z,6.78
2023-04-07T00:18:18.932Z,6.77
2023-04-07T00:23:21.795Z,6.77
2023-04-07T00:28:24.490Z,6.74
2023-04-07T00:33:28.772Z,6.73
2023-04-07T00:38:31.750Z,6.65
2023-04-07T00:43:34.752Z,6.74
2023-04-07T00:48:39.364Z,6.75
2023-04-07T00:53:42.816Z,6.75
2023-04-07T00:58:46.001Z,6.70
2023-04-07T01:03:58.020Z,6.67
2023-04-07T01:09:06.153Z,6.68
2023-04-07T01:14:11.242Z,6.71
2023-04-07T01:19:35.092Z,6.70
2023-04-07T01:24:58.719Z,6.63
2023-04-07T01:30:04.870Z,6.69
2023-04-07T01:35:11.435Z,6.72
2023-04-07T01:40:15.009Z,6.70
2023-04-07T01:45:19.681Z,6.69
2023-04-07T01:50:23.060Z,6.73
2023-04-07T01:55:26.594Z,6.64
2023-04-07T02:00:40.518Z,6.68
2023-04-07T02:05:49.450Z,6.65
2023-04-07T02:10:53.879Z,6.63
2023-04-07T02:15:59.050Z,6.58
2023-04-07T02:21:04.943Z,6.56
2023-04-07T02:26:07.899Z,6.64
2023-04-07T02:31:13.746Z,6.61
2023-04-07T02:36:16.648Z,6.64
2023-04-07T02:41:19.493Z,6.63
2023-04-07T02:46:23.761Z,6.65
2023-04-07T02:51:27.616Z,6.54
2023-04-07T02:56:31.079Z,6.63
2023-04-07T03:01:36.500Z,6.59
2023-04-07T03:06:39.480Z,6.63
2023-04-07T03:11:51.164Z,6.63
2023-04-07T03:16:56.443Z,6.61
2023-04-07T03:22:00.292Z,6.68
2023-04-07T03:27:03.642Z,6.65
2023-04-07T03:32:16.705Z,6.65
2023-04-07T03:37:19.764Z,6.63
2023-04-07T03:42:22.703Z,6.63
2023-04-07T03:47:29.536Z,6.65
2023-04-07T03:52:37.674Z,6.65
2023-04-07T03:57:49.757Z,6.63
2023-04-07T04:02:54.519Z,6.64
2023-04-07T04:07:57.545Z,6.58
2023-04-07T04:13:00.992Z,6.54
2023-04-07T04:18:05.394Z,6.59
2023-04-07T04:23:09.828Z,6.61
2023-04-07T04:28:13.658Z,6.61
2023-04-07T04:33:18.782Z,6.57
2023-04-07T04:38:33.396Z,6.58
2023-04-07T04:44:02.373Z,6.62
2023-04-07T04:49:08.159Z,6.65
2023-04-07T04:54:12.259Z,6.66
2023-04-07T04:59:15.693Z,6.58
2023-04-07T05:04:33.149Z,6.61
2023-04-07T05:09:45.957Z,6.61
2023-04-07T05:14:50.500Z,6.64
2023-04-07T05:19:55.853Z,6.66
2023-04-07T05:25:10.897Z,6.67
2023-04-07T05:30:16.218Z,6.70
2023-04-07T05:35:21.497Z,6.70
2023-04-07T05:40:30.220Z,6.72
2023-04-07T05:45:36.237Z,6.76
2023-04-07T05:50:40.527Z,6.79
2023-04-07T05:55:47.565Z,6.83
2023-04-07T06:01:20.634Z,6.82
2023-04-07T06:06:26.311Z,6.91
2023-04-07T06:11:29.445Z,6.96
2023-04-07T06:16:32.258Z,6.99
2023-04-07T06:21:36.420Z,7.03
2023-04-07T06:26:41.691Z,7.05
2023-04-07T06:31:44.630Z,7.12
2023-04-07T06:36:49.781Z,7.17
2023-04-07T06:41:54.393Z,7.21
2023-04-07T06:46:57.667Z,7.31
2023-04-07T06:52:01.775Z,7.37
2023-04-07T06:57:06.686Z,7.36
2023-04-07T07:02:10.571Z,7.52
2023-04-07T07:07:15.420Z,7.58
2023-04-07T07:12:19.205Z,7.65
2023-04-07T07:17:21.966Z,7.76
2023-04-07T07:22:26.796Z,7.83
2023-04-07T07:27:29.479Z,7.97
2023-04-07T07:32:32.262Z,7.99
2023-04-07T07:37:36.529Z,8.10
2023-04-07T07:42:39.571Z,8.09
2023-04-07T07:47:42.662Z,8.25
2023-04-07T07:52:47.755Z,8.31
2023-04-07T07:57:51.333Z,8.40
2023-04-07T08:02:54.402Z,8.57
2023-04-07T08:08:03.010Z,8.71
2023-04-07T08:13:06.502Z,8.76
2023-04-07T08:18:09.310Z,8.83
2023-04-07T08:23:13.942Z,8.92
2023-04-07T08:28:16.960Z,9.04
2023-04-07T08:33:19.895Z,9.07
2023-04-07T08:38:24.700Z,9.19
2023-04-07T08:43:29.789Z,9.05
2023-04-07T08:48:34.089Z,9.12
2023-04-07T08:53:44.385Z,9.38
2023-04-07T08:58:48.926Z,9.33
2023-04-07T09:03:52.443Z,9.32
2023-04-07T09:08:56.828Z,9.37
2023-04-07T09:14:01.870Z,9.18
2023-04-07T09:19:06.752Z,8.98
2023-04-07T09:24:22.382Z,9.00
2023-04-07T09:29:26.670Z,9.09
2023-04-07T09:34:32.979Z,9.33
2023-04-07T09:39:50.552Z,9.34
2023-04-07T09:44:53.559Z,9.42
2023-04-07T09:49:59.495Z,9.67
2023-04-07T09:55:07.751Z,9.84
2023-04-07T10:00:12.307Z,9.70
2023-04-07T10:05:21.046Z,9.70
2023-04-07T10:10:26.522Z,9.76
2023-04-07T10:15:30.346Z,10.27
2023-04-07T10:20:33.465Z,10.19
2023-04-07T10:25:40.237Z,10.56
2023-04-07T10:30:45.128Z,10.63
2023-04-07T10:36:08.864Z,10.81
2023-04-07T10:41:36.607Z,10.50
2023-04-07T10:47:04.854Z,10.51
2023-04-07T10:52:28.533Z,10.61
2023-04-07T10:57:33.803Z,10.71
2023-04-07T11:02:37.040Z,10.60
2023-04-07T11:07:48.751Z,10.49
2023-04-07T11:13:06.217Z,10.44
2023-04-07T11:18:18.496Z,10.34
2023-04-07T11:23:25.425Z,10.28
2023-04-07T11:28:29.984Z,10.18
2023-04-07T11:33:34.926Z,10.16
2023-04-07T11:38:39.368Z,10.29
2023-04-07T11:43:43.983Z,10.28
2023-04-07T11:48:47.902Z,10.80
2023-04-07T11:53:56.937Z,10.81
2023-04-07T11:59:02.553Z,10.73
2023-04-07T12:04:06.155Z,10.96
2023-04-07T12:09:10.332Z,10.94
2023-04-07T12:14:14.493Z,11.17
2023-04-07T12:19:18.299Z,10.94
2023-04-07T12:24:21.284Z,10.60
2023-04-07T12:29:25.543Z,10.73
2023-04-07T12:34:28.904Z,10.78
2023-04-07T12:39:31.741Z,10.77
2023-04-07T12:44:36.891Z,10.66
2023-04-07T12:49:39.615Z,10.63
2023-04-07T12:54:43.037Z,10.56
2023-04-07T12:59:47.937Z,10.77
2023-04-07T13:04:50.743Z,10.87
2023-04-07T13:09:54.956Z,10.74
2023-04-07T13:15:00.491Z,10.56
2023-04-07T13:20:04.694Z,10.79
2023-04-07T13:25:10.019Z,10.95
2023-04-07T13:30:16.219Z,11.02
2023-04-07T13:35:20.390Z,11.16
2023-04-07T13:40:23.960Z,11.29
2023-04-07T13:45:28.380Z,11.37
2023-04-07T13:50:31.739Z,11.34
2023-04-07T13:55:34.542Z,11.30
2023-04-07T14:00:38.639Z,11.54
2023-04-07T14:05:41.355Z,11.45
2023-04-07T14:10:44.050Z,11.52
2023-04-07T14:15:49.604Z,11.88
2023-04-07T14:20:52.423Z,11.82
2023-04-07T14:25:55.176Z,11.78
2023-04-07T14:30:59.260Z,12.45
2023-04-07T14:36:02.516Z,13.12
2023-04-07T14:41:10.101Z,12.69
2023-04-07T14:46:15.384Z,12.44
2023-04-07T14:51:18.247Z,11.86
2023-04-07T14:56:22.795Z,11.78
2023-04-07T15:01:27.232Z,11.57
2023-04-07T15:06:30.384Z,12.10
2023-04-07T15:11:33.723Z,12.20
2023-04-07T15:16:38.029Z,12.42
2023-04-07T15:21:40.942Z,11.82
2023-04-07T15:26:44.112Z,11.45
2023-04-07T15:31:48.692Z,11.33
2023-04-07T15:36:51.595Z,11.34
2023-04-07T15:41:54.491Z,11.48
2023-04-07T15:46:58.676Z,11.44
2023-04-07T15:52:02.085Z,10.87
2023-04-07T15:57:04.882Z,10.45
2023-04-07T16:02:09.194Z,10.34
2023-04-07T16:07:13.433Z,10.37
2023-04-07T16:12:16.553Z,10.28
2023-04-07T16:17:20.996Z,10.06
2023-04-07T16:22:23.715Z,10.05
2023-04-07T16:27:26.699Z,9.77
2023-04-07T16:32:30.844Z,9.80
2023-04-07T16:37:34.618Z,9.68
2023-04-07T16:42:37.619Z,9.56
2023-04-07T16:47:44.420Z,9.40
2023-04-07T16:52:48.024Z,9.30
2023-04-07T16:57:51.048Z,9.26
2023-04-07T17:02:55.370Z,9.13
2023-04-07T17:07:58.187Z,9.02
2023-04-07T17:13:00.906Z,9.02
2023-04-07T17:18:06.168Z,9.02
2023-04-07T17:23:10.268Z,8.93
2023-04-07T17:28:13.260Z,8.88
2023-04-07T17:33:18.009Z,8.87
2023-04-07T17:38:20.826Z,8.80
2023-04-07T17:43:23.620Z,8.80
2023-04-07T17:48:27.828Z,8.73
2023-04-07T17:53:31.233Z,8.65
2023-04-07T17:58:36.796Z,8.67
2023-04-07T18:03:41.061Z,8.58
2023-04-07T18:08:46.157Z,8.57
2023-04-07T18:13:49.109Z,8.58
2023-04-07T18:18:53.536Z,8.55
2023-04-07T18:23:56.307Z,8.54
2023-04-07T18:28:59.172Z,8.51
2023-04-07T18:34:03.362Z,8.48
2023-04-07T18:39:06.206Z,8.42
2023-04-07T18:44:09.000Z,8.39
2023-04-07T18:49:13.777Z,8.31
2023-04-07T18:54:16.503Z,8.21
2023-04-07T18:59:20.273Z,8.10
2023-04-07T19:04:25.331Z,8.03
2023-04-07T19:09:28.351Z,7.95
2023-04-07T19:14:31.242Z,7.86
2023-04-07T19:19:36.260Z,7.78
2023-04-07T19:24:40.261Z,7.70
2023-04-07T19:29:43.191Z,7.64
2023-04-07T19:34:47.310Z,7.62
2023-04-07T19:39:59.691Z,7.61
2023-04-07T19:45:08.154Z,7.56
2023-04-07T19:50:14.265Z,7.56
2023-04-07T19:55:17.253Z,7.57
2023-04-07T20:00:20.366Z,7.59
2023-04-07T20:05:27.396Z,7.58
2023-04-07T20:10:30.357Z,7.54
2023-04-07T20:15:33.070Z,7.50
2023-04-07T20:20:37.680Z,7.46
2023-04-07T20:25:40.697Z,7.44
2023-04-07T20:30:44.437Z,7.45
2023-04-07T20:35:49.427Z,7.43
2023-04-07T20:40:52.977Z,7.41
2023-04-07T20:45:56.770Z,7.41
2023-04-07T20:51:01.402Z,7.40
2023-04-07T20:56:04.744Z,7.39
2023-04-07T21:01:07.785Z,7.39
2023-04-07T21:06:11.982Z,7.40
2023-04-07T21:11:14.786Z,7.39
2023-04-07T21:16:17.717Z,7.39
2023-04-07T21:21:22.122Z,7.38
2023-04-07T21:26:24.907Z,7.39
2023-04-07T21:31:27.862Z,7.39
2023-04-07T21:36:32.800Z,7.38
2023-04-07T21:41:35.702Z,7.37
2023-04-07T21:46:38.852Z,7.35
2023-04-07T21:51:42.923Z,7.35
2023-04-07T21:56:49.161Z,7.36
2023-04-07T22:01:52.544Z,7.36
2023-04-07T22:06:58.094Z,7.38
2023-04-07T22:12:01.263Z,7.41
2023-04-07T22:17:04.323Z,7.40
2023-04-07T22:22:08.509Z,7.41
2023-04-07T22:27:11.258Z,7.43
2023-04-07T22:32:14.301Z,7.43
2023-04-07T22:37:19.302Z,7.45
2023-04-07T22:42:22.080Z,7.47
2023-04-07T22:47:24.908Z,7.46
2023-04-07T22:52:29.196Z,7.47
2023-04-07T22:57:31.993Z,7.47
2023-04-07T23:02:34.918Z,7.51
2023-04-07T23:07:39.396Z,7.51
2023-04-07T23:12:42.507Z,7.50
2023-04-07T23:17:45.317Z,7.53
2023-04-07T23:22:49.541Z,7.53
2023-04-07T23:27:52.327Z,7.54
2023-04-07T23:32:55.417Z,7.53
2023-04-07T23:37:59.523Z,7.53
2023-04-07T23:43:02.368Z,7.49
2023-04-07T23:48:05.078Z,7.49
2023-04-07T23:53:09.255Z,7.48
2023-04-07T23:58:12.194Z,7.46
